sensor_id;sensor_type;location;lat;lon;timestamp;P1;durP1;ratioP1;P2;durP2;ratioP2
60292;SDS011;52402;52.670;6.750;2023-03-23T00:01:15;15.88;;;14.20;;
60292;SDS011;52402;52.670;6.750;2023-03-23T00:03:49;16.45;;;14.10;;
60292;SDS011;52402;52.670;6.750;2023-03-23T00:06:16;15.77;;;12.93;;
60292;SDS011;52402;52.670;6.750;2023-03-23T00:08:44;16.38;;;13.32;;
60292;SDS011;52402;52.670;6.750;2023-03-23T00:11:12;14.68;;;13.15;;
60292;SDS011;52402;52.670;6.750;2023-03-23T00:13:39;15.82;;;13.10;;
60292;SDS011;52402;52.670;6.750;2023-03-23T00:16:07;14.75;;;12.02;;
60292;SDS011;52402;52.670;6.750;2023-03-23T00:18:46;14.45;;;12.15;;
60292;SDS011;52402;52.670;6.750;2023-03-23T00:21:13;13.20;;;11.25;;
60292;SDS011;52402;52.670;6.750;2023-03-23T00:23:39;13.80;;;12.27;;
60292;SDS011;52402;52.670;6.750;2023-03-23T00:26:05;15.02;;;12.32;;
60292;SDS011;52402;52.670;6.750;2023-03-23T00:28:31;13.93;;;12.02;;
60292;SDS011;52402;52.670;6.750;2023-03-23T00:30:57;12.85;;;11.23;;
60292;SDS011;52402;52.670;6.750;2023-03-23T00:33:24;14.07;;;11.13;;
60292;SDS011;52402;52.670;6.750;2023-03-23T00:35:52;13.27;;;11.80;;
60292;SDS011;52402;52.670;6.750;2023-03-23T00:38:19;13.25;;;10.93;;
60292;SDS011;52402;52.670;6.750;2023-03-23T00:40:46;13.10;;;10.30;;
60292;SDS011;52402;52.670;6.750;2023-03-23T00:43:12;14.63;;;11.38;;
60292;SDS011;52402;52.670;6.750;2023-03-23T00:45:40;12.45;;;10.13;;
60292;SDS011;52402;52.670;6.750;2023-03-23T00:48:05;12.00;;;10.38;;
60292;SDS011;52402;52.670;6.750;2023-03-23T00:50:31;14.25;;;10.93;;
60292;SDS011;52402;52.670;6.750;2023-03-23T00:52:57;12.10;;;9.90;;
60292;SDS011;52402;52.670;6.750;2023-03-23T00:55:24;11.65;;;9.73;;
60292;SDS011;52402;52.670;6.750;2023-03-23T00:57:50;10.65;;;9.25;;
60292;SDS011;52402;52.670;6.750;2023-03-23T01:00:16;14.48;;;10.27;;
60292;SDS011;52402;52.670;6.750;2023-03-23T01:02:44;14.43;;;9.90;;
60292;SDS011;52402;52.670;6.750;2023-03-23T01:05:11;11.30;;;8.57;;
60292;SDS011;52402;52.670;6.750;2023-03-23T01:07:39;10.68;;;8.98;;
60292;SDS011;52402;52.670;6.750;2023-03-23T01:10:04;12.52;;;9.27;;
60292;SDS011;52402;52.670;6.750;2023-03-23T01:12:30;12.02;;;9.00;;
60292;SDS011;52402;52.670;6.750;2023-03-23T01:14:56;13.48;;;9.18;;
60292;SDS011;52402;52.670;6.750;2023-03-23T01:17:21;11.55;;;9.10;;
60292;SDS011;52402;52.670;6.750;2023-03-23T01:19:47;12.45;;;8.65;;
60292;SDS011;52402;52.670;6.750;2023-03-23T01:22:13;10.75;;;9.65;;
60292;SDS011;52402;52.670;6.750;2023-03-23T01:24:39;10.98;;;8.85;;
60292;SDS011;52402;52.670;6.750;2023-03-23T01:27:05;10.82;;;8.55;;
60292;SDS011;52402;52.670;6.750;2023-03-23T01:29:34;12.52;;;9.00;;
60292;SDS011;52402;52.670;6.750;2023-03-23T01:32:00;13.40;;;8.30;;
60292;SDS011;52402;52.670;6.750;2023-03-23T01:34:27;12.88;;;8.60;;
60292;SDS011;52402;52.670;6.750;2023-03-23T01:36:53;11.60;;;7.82;;
60292;SDS011;52402;52.670;6.750;2023-03-23T01:39:19;10.70;;;7.65;;
60292;SDS011;52402;52.670;6.750;2023-03-23T01:41:45;10.05;;;7.78;;
60292;SDS011;52402;52.670;6.750;2023-03-23T01:46:43;10.85;;;7.55;;
60292;SDS011;52402;52.670;6.750;2023-03-23T01:49:19;10.45;;;7.65;;
60292;SDS011;52402;52.670;6.750;2023-03-23T01:51:49;9.70;;;7.57;;
60292;SDS011;52402;52.670;6.750;2023-03-23T01:54:22;9.77;;;7.20;;
60292;SDS011;52402;52.670;6.750;2023-03-23T01:56:54;11.13;;;7.00;;
60292;SDS011;52402;52.670;6.750;2023-03-23T01:59:42;9.38;;;7.28;;
60292;SDS011;52402;52.670;6.750;2023-03-23T02:02:10;9.57;;;7.20;;
60292;SDS011;52402;52.670;6.750;2023-03-23T02:04:37;10.73;;;7.95;;
60292;SDS011;52402;52.670;6.750;2023-03-23T02:07:06;12.05;;;7.60;;
60292;SDS011;52402;52.670;6.750;2023-03-23T02:09:32;9.82;;;7.45;;
60292;SDS011;52402;52.670;6.750;2023-03-23T02:11:57;9.88;;;7.00;;
60292;SDS011;52402;52.670;6.750;2023-03-23T02:14:24;10.02;;;7.75;;
60292;SDS011;52402;52.670;6.750;2023-03-23T02:25:14;10.43;;;7.25;;
60292;SDS011;52402;52.670;6.750;2023-03-23T02:41:52;11.85;;;7.50;;
60292;SDS011;52402;52.670;6.750;2023-03-23T02:44:23;9.38;;;7.00;;
60292;SDS011;52402;52.670;6.750;2023-03-23T02:46:55;10.63;;;7.03;;
60292;SDS011;52402;52.670;6.750;2023-03-23T02:49:22;9.10;;;6.78;;
60292;SDS011;52402;52.670;6.750;2023-03-23T02:51:50;9.57;;;7.22;;
60292;SDS011;52402;52.670;6.750;2023-03-23T02:54:17;12.00;;;7.57;;
60292;SDS011;52402;52.670;6.750;2023-03-23T02:56:45;8.93;;;7.20;;
60292;SDS011;52402;52.670;6.750;2023-03-23T02:59:11;8.80;;;6.65;;
60292;SDS011;52402;52.670;6.750;2023-03-23T03:04:16;7.93;;;6.45;;
60292;SDS011;52402;52.670;6.750;2023-03-23T03:06:47;9.50;;;6.82;;
60292;SDS011;52402;52.670;6.750;2023-03-23T03:09:54;8.27;;;6.30;;
60292;SDS011;52402;52.670;6.750;2023-03-23T03:12:47;7.85;;;6.35;;
60292;SDS011;52402;52.670;6.750;2023-03-23T03:17:57;7.82;;;6.22;;
60292;SDS011;52402;52.670;6.750;2023-03-23T03:20:34;8.77;;;6.45;;
60292;SDS011;52402;52.670;6.750;2023-03-23T03:23:06;8.23;;;6.40;;
60292;SDS011;52402;52.670;6.750;2023-03-23T03:25:34;7.57;;;6.07;;
60292;SDS011;52402;52.670;6.750;2023-03-23T03:28:00;9.88;;;6.50;;
60292;SDS011;52402;52.670;6.750;2023-03-23T03:30:29;7.60;;;6.20;;
60292;SDS011;52402;52.670;6.750;2023-03-23T03:32:58;9.18;;;6.35;;
60292;SDS011;52402;52.670;6.750;2023-03-23T03:35:25;9.30;;;6.53;;
60292;SDS011;52402;52.670;6.750;2023-03-23T03:37:51;7.78;;;6.20;;
60292;SDS011;52402;52.670;6.750;2023-03-23T03:40:19;8.70;;;6.70;;
60292;SDS011;52402;52.670;6.750;2023-03-23T03:42:46;10.18;;;6.82;;
60292;SDS011;52402;52.670;6.750;2023-03-23T03:45:16;9.23;;;6.72;;
60292;SDS011;52402;52.670;6.750;2023-03-23T03:47:43;9.38;;;6.72;;
60292;SDS011;52402;52.670;6.750;2023-03-23T03:50:09;9.68;;;6.63;;
60292;SDS011;52402;52.670;6.750;2023-03-23T03:52:35;8.15;;;6.25;;
60292;SDS011;52402;52.670;6.750;2023-03-23T03:55:01;8.02;;;6.60;;
60292;SDS011;52402;52.670;6.750;2023-03-23T03:57:26;10.13;;;6.30;;
60292;SDS011;52402;52.670;6.750;2023-03-23T03:59:52;8.48;;;6.60;;
60292;SDS011;52402;52.670;6.750;2023-03-23T04:02:18;8.70;;;6.47;;
60292;SDS011;52402;52.670;6.750;2023-03-23T04:04:48;9.07;;;6.97;;
60292;SDS011;52402;52.670;6.750;2023-03-23T04:07:14;8.48;;;6.60;;
60292;SDS011;52402;52.670;6.750;2023-03-23T04:09:44;9.18;;;6.63;;
60292;SDS011;52402;52.670;6.750;2023-03-23T04:12:11;7.93;;;7.00;;
60292;SDS011;52402;52.670;6.750;2023-03-23T04:14:37;9.73;;;6.93;;
60292;SDS011;52402;52.670;6.750;2023-03-23T04:17:03;8.27;;;6.90;;
60292;SDS011;52402;52.670;6.750;2023-03-23T04:19:29;9.60;;;7.03;;
60292;SDS011;52402;52.670;6.750;2023-03-23T04:21:58;8.63;;;7.20;;
60292;SDS011;52402;52.670;6.750;2023-03-23T04:24:24;9.10;;;7.50;;
60292;SDS011;52402;52.670;6.750;2023-03-23T04:26:50;9.35;;;6.65;;
60292;SDS011;52402;52.670;6.750;2023-03-23T04:29:19;10.40;;;7.15;;
60292;SDS011;52402;52.670;6.750;2023-03-23T04:31:45;10.02;;;7.30;;
60292;SDS011;52402;52.670;6.750;2023-03-23T04:34:11;10.10;;;7.38;;
60292;SDS011;52402;52.670;6.750;2023-03-23T04:36:38;11.43;;;7.85;;
60292;SDS011;52402;52.670;6.750;2023-03-23T04:39:05;9.15;;;7.05;;
60292;SDS011;52402;52.670;6.750;2023-03-23T04:41:34;10.10;;;7.50;;
60292;SDS011;52402;52.670;6.750;2023-03-23T04:44:01;10.23;;;7.03;;
60292;SDS011;52402;52.670;6.750;2023-03-23T04:46:29;11.15;;;6.75;;
60292;SDS011;52402;52.670;6.750;2023-03-23T04:48:55;9.55;;;7.00;;
60292;SDS011;52402;52.670;6.750;2023-03-23T04:51:23;11.60;;;7.22;;
60292;SDS011;52402;52.670;6.750;2023-03-23T04:53:51;9.00;;;6.80;;
60292;SDS011;52402;52.670;6.750;2023-03-23T04:56:17;8.80;;;6.20;;
60292;SDS011;52402;52.670;6.750;2023-03-23T04:58:43;9.82;;;6.15;;
60292;SDS011;52402;52.670;6.750;2023-03-23T05:01:09;10.45;;;7.13;;
60292;SDS011;52402;52.670;6.750;2023-03-23T05:03:38;9.60;;;6.30;;
60292;SDS011;52402;52.670;6.750;2023-03-23T05:06:05;10.55;;;6.85;;
60292;SDS011;52402;52.670;6.750;2023-03-23T05:08:31;10.95;;;7.35;;
60292;SDS011;52402;52.670;6.750;2023-03-23T05:10:58;9.40;;;6.20;;
60292;SDS011;52402;52.670;6.750;2023-03-23T05:13:25;8.95;;;6.35;;
60292;SDS011;52402;52.670;6.750;2023-03-23T05:15:53;9.38;;;6.45;;
60292;SDS011;52402;52.670;6.750;2023-03-23T05:18:19;10.43;;;6.72;;
60292;SDS011;52402;52.670;6.750;2023-03-23T05:20:45;9.75;;;7.15;;
60292;SDS011;52402;52.670;6.750;2023-03-23T05:23:11;11.88;;;7.13;;
60292;SDS011;52402;52.670;6.750;2023-03-23T05:25:38;13.02;;;8.18;;
60292;SDS011;52402;52.670;6.750;2023-03-23T05:28:07;11.27;;;8.68;;
60292;SDS011;52402;52.670;6.750;2023-03-23T05:30:37;9.13;;;4.55;;
60292;SDS011;52402;52.670;6.750;2023-03-23T05:33:03;8.63;;;3.40;;
60292;SDS011;52402;52.670;6.750;2023-03-23T05:35:29;7.90;;;2.67;;
60292;SDS011;52402;52.670;6.750;2023-03-23T05:37:56;9.52;;;2.53;;
60292;SDS011;52402;52.670;6.750;2023-03-23T05:40:22;9.73;;;3.42;;
60292;SDS011;52402;52.670;6.750;2023-03-23T05:42:50;9.10;;;3.58;;
60292;SDS011;52402;52.670;6.750;2023-03-23T05:45:16;9.75;;;4.07;;
60292;SDS011;52402;52.670;6.750;2023-03-23T05:47:43;10.23;;;3.38;;
60292;SDS011;52402;52.670;6.750;2023-03-23T05:50:09;8.88;;;3.20;;
60292;SDS011;52402;52.670;6.750;2023-03-23T05:52:35;8.30;;;3.20;;
60292;SDS011;52402;52.670;6.750;2023-03-23T05:55:03;10.73;;;3.33;;
60292;SDS011;52402;52.670;6.750;2023-03-23T05:57:29;8.88;;;3.15;;
60292;SDS011;52402;52.670;6.750;2023-03-23T05:59:56;7.95;;;3.30;;
60292;SDS011;52402;52.670;6.750;2023-03-23T06:02:23;8.60;;;3.50;;
60292;SDS011;52402;52.670;6.750;2023-03-23T06:04:49;8.60;;;3.72;;
60292;SDS011;52402;52.670;6.750;2023-03-23T06:07:22;8.27;;;4.45;;
60292;SDS011;52402;52.670;6.750;2023-03-23T06:09:51;8.45;;;3.95;;
60292;SDS011;52402;52.670;6.750;2023-03-23T06:12:17;8.57;;;3.30;;
60292;SDS011;52402;52.670;6.750;2023-03-23T06:14:47;8.18;;;3.63;;
60292;SDS011;52402;52.670;6.750;2023-03-23T06:17:16;10.48;;;3.88;;
60292;SDS011;52402;52.670;6.750;2023-03-23T06:19:42;10.27;;;4.13;;
60292;SDS011;52402;52.670;6.750;2023-03-23T06:22:08;8.93;;;4.30;;
60292;SDS011;52402;52.670;6.750;2023-03-23T06:24:35;10.90;;;4.40;;
60292;SDS011;52402;52.670;6.750;2023-03-23T06:27:01;13.23;;;4.90;;
60292;SDS011;52402;52.670;6.750;2023-03-23T06:29:27;12.23;;;4.68;;
60292;SDS011;52402;52.670;6.750;2023-03-23T06:31:57;14.07;;;5.18;;
60292;SDS011;52402;52.670;6.750;2023-03-23T06:34:25;14.80;;;5.43;;
60292;SDS011;52402;52.670;6.750;2023-03-23T06:36:51;13.70;;;5.68;;
60292;SDS011;52402;52.670;6.750;2023-03-23T06:39:19;12.65;;;5.05;;
60292;SDS011;52402;52.670;6.750;2023-03-23T06:41:45;13.45;;;5.50;;
60292;SDS011;52402;52.670;6.750;2023-03-23T06:44:11;12.85;;;5.18;;
60292;SDS011;52402;52.670;6.750;2023-03-23T06:46:38;16.30;;;6.07;;
60292;SDS011;52402;52.670;6.750;2023-03-23T06:49:04;12.20;;;5.45;;
60292;SDS011;52402;52.670;6.750;2023-03-23T06:51:30;15.57;;;6.40;;
60292;SDS011;52402;52.670;6.750;2023-03-23T06:53:56;14.20;;;6.68;;
60292;SDS011;52402;52.670;6.750;2023-03-23T06:56:22;16.75;;;6.70;;
60292;SDS011;52402;52.670;6.750;2023-03-23T06:58:49;15.88;;;6.95;;
60292;SDS011;52402;52.670;6.750;2023-03-23T07:01:14;11.00;;;5.85;;
60292;SDS011;52402;52.670;6.750;2023-03-23T07:03:41;12.65;;;6.05;;
60292;SDS011;52402;52.670;6.750;2023-03-23T07:06:07;13.40;;;5.10;;
60292;SDS011;52402;52.670;6.750;2023-03-23T07:08:34;13.02;;;5.47;;
60292;SDS011;52402;52.670;6.750;2023-03-23T07:11:00;15.85;;;5.35;;
60292;SDS011;52402;52.670;6.750;2023-03-23T07:13:26;12.02;;;4.60;;
60292;SDS011;52402;52.670;6.750;2023-03-23T07:15:51;12.93;;;4.63;;
60292;SDS011;52402;52.670;6.750;2023-03-23T07:18:20;11.90;;;4.80;;
60292;SDS011;52402;52.670;6.750;2023-03-23T07:20:51;9.98;;;4.28;;
60292;SDS011;52402;52.670;6.750;2023-03-23T07:23:18;14.40;;;4.40;;
60292;SDS011;52402;52.670;6.750;2023-03-23T07:25:44;12.00;;;4.07;;
60292;SDS011;52402;52.670;6.750;2023-03-23T07:28:11;11.57;;;3.85;;
60292;SDS011;52402;52.670;6.750;2023-03-23T07:30:37;11.88;;;4.28;;
60292;SDS011;52402;52.670;6.750;2023-03-23T07:33:07;12.80;;;3.80;;
60292;SDS011;52402;52.670;6.750;2023-03-23T07:35:33;13.43;;;3.80;;
60292;SDS011;52402;52.670;6.750;2023-03-23T07:38:00;11.85;;;4.28;;
60292;SDS011;52402;52.670;6.750;2023-03-23T07:40:27;11.95;;;3.92;;
60292;SDS011;52402;52.670;6.750;2023-03-23T07:42:53;12.68;;;4.25;;
60292;SDS011;52402;52.670;6.750;2023-03-23T07:45:21;14.20;;;4.43;;
60292;SDS011;52402;52.670;6.750;2023-03-23T07:47:47;12.45;;;4.63;;
60292;SDS011;52402;52.670;6.750;2023-03-23T07:50:12;14.60;;;4.63;;
60292;SDS011;52402;52.670;6.750;2023-03-23T07:52:39;14.15;;;4.88;;
60292;SDS011;52402;52.670;6.750;2023-03-23T07:55:07;15.80;;;4.80;;
60292;SDS011;52402;52.670;6.750;2023-03-23T07:57:36;13.10;;;4.57;;
60292;SDS011;52402;52.670;6.750;2023-03-23T08:00:03;13.10;;;4.32;;
60292;SDS011;52402;52.670;6.750;2023-03-23T08:02:44;14.15;;;4.47;;
60292;SDS011;52402;52.670;6.750;2023-03-23T08:05:13;12.50;;;4.38;;
60292;SDS011;52402;52.670;6.750;2023-03-23T08:07:40;13.13;;;4.43;;
60292;SDS011;52402;52.670;6.750;2023-03-23T08:10:07;12.77;;;4.43;;
60292;SDS011;52402;52.670;6.750;2023-03-23T08:12:38;12.18;;;4.57;;
60292;SDS011;52402;52.670;6.750;2023-03-23T08:15:05;13.77;;;4.90;;
60292;SDS011;52402;52.670;6.750;2023-03-23T08:17:32;14.43;;;4.38;;
60292;SDS011;52402;52.670;6.750;2023-03-23T08:19:59;12.20;;;4.93;;
60292;SDS011;52402;52.670;6.750;2023-03-23T08:22:25;13.63;;;4.72;;
60292;SDS011;52402;52.670;6.750;2023-03-23T08:24:51;13.05;;;4.38;;
60292;SDS011;52402;52.670;6.750;2023-03-23T08:27:17;12.20;;;4.65;;
60292;SDS011;52402;52.670;6.750;2023-03-23T08:29:46;13.88;;;4.57;;
60292;SDS011;52402;52.670;6.750;2023-03-23T08:32:13;12.88;;;5.13;;
60292;SDS011;52402;52.670;6.750;2023-03-23T08:34:39;14.35;;;5.05;;
60292;SDS011;52402;52.670;6.750;2023-03-23T08:37:07;12.63;;;5.15;;
60292;SDS011;52402;52.670;6.750;2023-03-23T08:39:34;14.77;;;5.82;;
60292;SDS011;52402;52.670;6.750;2023-03-23T08:41:59;14.65;;;5.25;;
60292;SDS011;52402;52.670;6.750;2023-03-23T08:44:25;17.02;;;5.82;;
60292;SDS011;52402;52.670;6.750;2023-03-23T08:46:51;16.13;;;5.75;;
60292;SDS011;52402;52.670;6.750;2023-03-23T08:49:21;14.10;;;5.85;;
60292;SDS011;52402;52.670;6.750;2023-03-23T08:51:47;15.10;;;6.00;;
60292;SDS011;52402;52.670;6.750;2023-03-23T08:54:13;19.58;;;6.50;;
60292;SDS011;52402;52.670;6.750;2023-03-23T08:56:39;13.48;;;5.93;;
60292;SDS011;52402;52.670;6.750;2023-03-23T08:59:04;17.42;;;6.30;;
60292;SDS011;52402;52.670;6.750;2023-03-23T09:01:31;15.70;;;6.38;;
60292;SDS011;52402;52.670;6.750;2023-03-23T09:03:58;20.92;;;6.82;;
60292;SDS011;52402;52.670;6.750;2023-03-23T09:06:24;12.63;;;5.85;;
60292;SDS011;52402;52.670;6.750;2023-03-23T09:08:51;13.50;;;5.90;;
60292;SDS011;52402;52.670;6.750;2023-03-23T09:11:17;13.82;;;6.47;;
60292;SDS011;52402;52.670;6.750;2023-03-23T09:13:42;15.35;;;6.30;;
60292;SDS011;52402;52.670;6.750;2023-03-23T09:16:08;15.25;;;5.85;;
60292;SDS011;52402;52.670;6.750;2023-03-23T09:18:35;12.43;;;5.18;;
60292;SDS011;52402;52.670;6.750;2023-03-23T09:21:01;13.52;;;4.90;;
60292;SDS011;52402;52.670;6.750;2023-03-23T09:23:28;12.38;;;4.88;;
60292;SDS011;52402;52.670;6.750;2023-03-23T09:25:54;15.32;;;4.65;;
60292;SDS011;52402;52.670;6.750;2023-03-23T09:28:19;10.85;;;4.30;;
60292;SDS011;52402;52.670;6.750;2023-03-23T09:30:45;12.25;;;4.50;;
60292;SDS011;52402;52.670;6.750;2023-03-23T09:33:12;10.50;;;4.10;;
60292;SDS011;52402;52.670;6.750;2023-03-23T09:35:38;11.00;;;3.83;;
60292;SDS011;52402;52.670;6.750;2023-03-23T09:38:06;11.68;;;3.95;;
60292;SDS011;52402;52.670;6.750;2023-03-23T09:40:42;12.38;;;3.97;;
60292;SDS011;52402;52.670;6.750;2023-03-23T09:43:19;11.60;;;3.80;;
60292;SDS011;52402;52.670;6.750;2023-03-23T09:49:04;12.40;;;3.80;;
60292;SDS011;52402;52.670;6.750;2023-03-23T09:52:03;10.70;;;3.70;;
60292;SDS011;52402;52.670;6.750;2023-03-23T09:54:52;10.13;;;3.70;;
60292;SDS011;52402;52.670;6.750;2023-03-23T09:57:26;12.00;;;3.70;;
60292;SDS011;52402;52.670;6.750;2023-03-23T10:02:48;9.45;;;4.18;;
60292;SDS011;52402;52.670;6.750;2023-03-23T10:05:29;10.98;;;3.95;;
60292;SDS011;52402;52.670;6.750;2023-03-23T10:07:58;11.02;;;3.70;;
60292;SDS011;52402;52.670;6.750;2023-03-23T10:16:11;12.13;;;3.85;;
60292;SDS011;52402;52.670;6.750;2023-03-23T10:21:17;11.68;;;4.25;;
60292;SDS011;52402;52.670;6.750;2023-03-23T10:29:29;8.57;;;3.25;;
60292;SDS011;52402;52.670;6.750;2023-03-23T10:34:34;8.27;;;3.47;;
60292;SDS011;52402;52.670;6.750;2023-03-23T10:37:20;9.18;;;3.30;;
60292;SDS011;52402;52.670;6.750;2023-03-23T10:39:54;11.38;;;3.45;;
60292;SDS011;52402;52.670;6.750;2023-03-23T10:42:22;9.75;;;3.40;;
60292;SDS011;52402;52.670;6.750;2023-03-23T10:44:50;11.27;;;3.55;;
60292;SDS011;52402;52.670;6.750;2023-03-23T10:47:16;10.52;;;3.40;;
60292;SDS011;52402;52.670;6.750;2023-03-23T10:49:49;7.90;;;3.10;;
60292;SDS011;52402;52.670;6.750;2023-03-23T10:55:13;9.15;;;3.13;;
60292;SDS011;52402;52.670;6.750;2023-03-23T10:57:42;10.93;;;3.22;;
60292;SDS011;52402;52.670;6.750;2023-03-23T11:02:45;11.00;;;3.45;;
60292;SDS011;52402;52.670;6.750;2023-03-23T11:05:23;10.95;;;3.50;;
60292;SDS011;52402;52.670;6.750;2023-03-23T11:07:53;10.18;;;3.92;;
60292;SDS011;52402;52.670;6.750;2023-03-23T11:10:37;9.18;;;3.42;;
60292;SDS011;52402;52.670;6.750;2023-03-23T11:13:09;10.80;;;3.40;;
60292;SDS011;52402;52.670;6.750;2023-03-23T11:15:42;11.23;;;4.00;;
60292;SDS011;52402;52.670;6.750;2023-03-23T11:18:13;10.30;;;3.40;;
60292;SDS011;52402;52.670;6.750;2023-03-23T11:20:45;11.45;;;3.70;;
60292;SDS011;52402;52.670;6.750;2023-03-23T11:28:35;10.05;;;3.92;;
60292;SDS011;52402;52.670;6.750;2023-03-23T11:31:03;11.18;;;4.25;;
60292;SDS011;52402;52.670;6.750;2023-03-23T11:33:47;9.50;;;3.60;;
60292;SDS011;52402;52.670;6.750;2023-03-23T11:36:20;11.20;;;3.70;;
60292;SDS011;52402;52.670;6.750;2023-03-23T11:38:51;11.25;;;4.10;;
60292;SDS011;52402;52.670;6.750;2023-03-23T11:41:21;10.43;;;3.67;;
60292;SDS011;52402;52.670;6.750;2023-03-23T11:43:50;9.05;;;3.40;;
60292;SDS011;52402;52.670;6.750;2023-03-23T11:46:32;13.50;;;4.20;;
60292;SDS011;52402;52.670;6.750;2023-03-23T11:49:03;13.38;;;4.60;;
60292;SDS011;52402;52.670;6.750;2023-03-23T11:51:41;13.48;;;4.63;;
60292;SDS011;52402;52.670;6.750;2023-03-23T11:54:15;14.32;;;5.75;;
60292;SDS011;52402;52.670;6.750;2023-03-23T11:56:53;12.18;;;4.28;;
60292;SDS011;52402;52.670;6.750;2023-03-23T11:59:31;13.45;;;3.70;;
60292;SDS011;52402;52.670;6.750;2023-03-23T12:12:59;11.40;;;4.00;;
60292;SDS011;52402;52.670;6.750;2023-03-23T12:15:37;14.00;;;3.80;;
60292;SDS011;52402;52.670;6.750;2023-03-23T12:18:22;11.80;;;3.08;;
60292;SDS011;52402;52.670;6.750;2023-03-23T12:24:01;14.60;;;3.75;;
60292;SDS011;52402;52.670;6.750;2023-03-23T12:26:33;11.63;;;3.42;;
60292;SDS011;52402;52.670;6.750;2023-03-23T12:29:28;11.43;;;3.00;;
60292;SDS011;52402;52.670;6.750;2023-03-23T12:32:31;10.48;;;2.72;;
60292;SDS011;52402;52.670;6.750;2023-03-23T12:35:25;11.07;;;3.10;;
60292;SDS011;52402;52.670;6.750;2023-03-23T12:43:38;10.30;;;2.97;;
60292;SDS011;52402;52.670;6.750;2023-03-23T13:00:06;11.73;;;2.53;;
60292;SDS011;52402;52.670;6.750;2023-03-23T13:03:09;9.73;;;2.65;;
60292;SDS011;52402;52.670;6.750;2023-03-23T13:05:52;9.63;;;2.67;;
60292;SDS011;52402;52.670;6.750;2023-03-23T13:08:25;10.20;;;2.55;;
60292;SDS011;52402;52.670;6.750;2023-03-23T13:11:04;10.63;;;2.63;;
60292;SDS011;52402;52.670;6.750;2023-03-23T13:13:47;9.93;;;2.53;;
60292;SDS011;52402;52.670;6.750;2023-03-23T13:16:27;12.05;;;2.88;;
60292;SDS011;52402;52.670;6.750;2023-03-23T13:21:40;9.20;;;2.60;;
60292;SDS011;52402;52.670;6.750;2023-03-23T13:24:19;10.45;;;2.58;;
60292;SDS011;52402;52.670;6.750;2023-03-23T13:26:49;12.20;;;3.13;;
60292;SDS011;52402;52.670;6.750;2023-03-23T13:29:19;9.82;;;2.80;;
60292;SDS011;52402;52.670;6.750;2023-03-23T13:31:49;9.68;;;2.30;;
60292;SDS011;52402;52.670;6.750;2023-03-23T13:34:25;10.30;;;3.17;;
60292;SDS011;52402;52.670;6.750;2023-03-23T13:37:03;11.27;;;2.33;;
60292;SDS011;52402;52.670;6.750;2023-03-23T13:44:25;9.68;;;2.58;;
60292;SDS011;52402;52.670;6.750;2023-03-23T13:47:14;8.32;;;2.72;;
60292;SDS011;52402;52.670;6.750;2023-03-23T13:49:58;10.48;;;2.88;;
60292;SDS011;52402;52.670;6.750;2023-03-23T14:01:01;9.80;;;3.10;;
60292;SDS011;52402;52.670;6.750;2023-03-23T14:03:16;11.93;;;3.03;;
60292;SDS011;52402;52.670;6.750;2023-03-23T14:05:59;9.15;;;2.78;;
60292;SDS011;52402;52.670;6.750;2023-03-23T14:10:55;9.60;;;2.72;;
60292;SDS011;52402;52.670;6.750;2023-03-23T14:16:38;8.65;;;2.40;;
60292;SDS011;52402;52.670;6.750;2023-03-23T14:19:22;6.68;;;2.20;;
60292;SDS011;52402;52.670;6.750;2023-03-23T14:21:51;8.30;;;2.20;;
60292;SDS011;52402;52.670;6.750;2023-03-23T14:24:26;10.30;;;2.80;;
60292;SDS011;52402;52.670;6.750;2023-03-23T14:27:01;9.18;;;2.40;;
60292;SDS011;52402;52.670;6.750;2023-03-23T14:29:35;9.27;;;2.67;;
60292;SDS011;52402;52.670;6.750;2023-03-23T14:32:01;11.05;;;2.70;;
60292;SDS011;52402;52.670;6.750;2023-03-23T14:34:30;10.63;;;2.67;;
60292;SDS011;52402;52.670;6.750;2023-03-23T14:36:58;12.13;;;2.75;;
60292;SDS011;52402;52.670;6.750;2023-03-23T14:39:25;8.32;;;2.42;;
60292;SDS011;52402;52.670;6.750;2023-03-23T14:41:54;10.68;;;2.65;;
60292;SDS011;52402;52.670;6.750;2023-03-23T14:44:22;11.27;;;3.05;;
60292;SDS011;52402;52.670;6.750;2023-03-23T14:46:54;11.43;;;3.00;;
60292;SDS011;52402;52.670;6.750;2023-03-23T14:49:32;10.45;;;2.95;;
60292;SDS011;52402;52.670;6.750;2023-03-23T14:52:10;9.90;;;2.75;;
60292;SDS011;52402;52.670;6.750;2023-03-23T14:54:41;10.23;;;3.00;;
60292;SDS011;52402;52.670;6.750;2023-03-23T14:59:44;9.63;;;2.60;;
60292;SDS011;52402;52.670;6.750;2023-03-23T15:02:12;7.55;;;2.50;;
60292;SDS011;52402;52.670;6.750;2023-03-23T15:04:39;8.13;;;2.17;;
60292;SDS011;52402;52.670;6.750;2023-03-23T15:07:08;14.48;;;4.10;;
60292;SDS011;52402;52.670;6.750;2023-03-23T15:09:34;9.90;;;3.15;;
60292;SDS011;52402;52.670;6.750;2023-03-23T15:12:06;8.80;;;2.60;;
60292;SDS011;52402;52.670;6.750;2023-03-23T15:14:43;9.10;;;2.67;;
60292;SDS011;52402;52.670;6.750;2023-03-23T15:17:22;8.50;;;2.50;;
60292;SDS011;52402;52.670;6.750;2023-03-23T15:19:50;9.15;;;2.78;;
60292;SDS011;52402;52.670;6.750;2023-03-23T15:24:51;9.77;;;2.95;;
60292;SDS011;52402;52.670;6.750;2023-03-23T15:29:55;10.55;;;3.15;;
60292;SDS011;52402;52.670;6.750;2023-03-23T15:32:38;10.60;;;2.97;;
60292;SDS011;52402;52.670;6.750;2023-03-23T15:35:16;10.73;;;3.00;;
60292;SDS011;52402;52.670;6.750;2023-03-23T15:37:44;9.63;;;2.80;;
60292;SDS011;52402;52.670;6.750;2023-03-23T15:40:24;10.23;;;3.33;;
60292;SDS011;52402;52.670;6.750;2023-03-23T15:43:05;13.23;;;3.20;;
60292;SDS011;52402;52.670;6.750;2023-03-23T15:46:46;12.98;;;3.28;;
60292;SDS011;52402;52.670;6.750;2023-03-23T15:48:48;10.88;;;2.70;;
60292;SDS011;52402;52.670;6.750;2023-03-23T15:51:16;9.75;;;3.15;;
60292;SDS011;52402;52.670;6.750;2023-03-23T15:53:44;14.70;;;3.90;;
60292;SDS011;52402;52.670;6.750;2023-03-23T15:56:11;8.52;;;2.88;;
60292;SDS011;52402;52.670;6.750;2023-03-23T15:58:38;9.02;;;2.65;;
60292;SDS011;52402;52.670;6.750;2023-03-23T16:01:05;10.73;;;3.30;;
60292;SDS011;52402;52.670;6.750;2023-03-23T16:03:51;10.80;;;3.40;;
60292;SDS011;52402;52.670;6.750;2023-03-23T16:06:20;9.55;;;3.00;;
60292;SDS011;52402;52.670;6.750;2023-03-23T16:08:48;9.05;;;2.75;;
60292;SDS011;52402;52.670;6.750;2023-03-23T16:11:16;9.18;;;2.78;;
60292;SDS011;52402;52.670;6.750;2023-03-23T16:13:42;6.85;;;2.35;;
60292;SDS011;52402;52.670;6.750;2023-03-23T16:16:14;7.53;;;2.47;;
60292;SDS011;52402;52.670;6.750;2023-03-23T16:18:40;7.15;;;2.40;;
60292;SDS011;52402;52.670;6.750;2023-03-23T16:21:06;8.88;;;2.50;;
60292;SDS011;52402;52.670;6.750;2023-03-23T16:23:32;7.15;;;2.63;;
60292;SDS011;52402;52.670;6.750;2023-03-23T16:25:58;7.18;;;2.20;;
60292;SDS011;52402;52.670;6.750;2023-03-23T16:28:23;6.90;;;2.03;;
60292;SDS011;52402;52.670;6.750;2023-03-23T16:30:49;6.97;;;2.30;;
60292;SDS011;52402;52.670;6.750;2023-03-23T16:33:15;7.43;;;2.20;;
60292;SDS011;52402;52.670;6.750;2023-03-23T16:35:41;6.93;;;2.30;;
60292;SDS011;52402;52.670;6.750;2023-03-23T16:38:09;8.15;;;2.63;;
60292;SDS011;52402;52.670;6.750;2023-03-23T16:40:40;9.90;;;3.40;;
60292;SDS011;52402;52.670;6.750;2023-03-23T16:43:07;8.00;;;3.00;;
60292;SDS011;52402;52.670;6.750;2023-03-23T16:45:33;9.75;;;3.22;;
60292;SDS011;52402;52.670;6.750;2023-03-23T16:47:59;8.02;;;2.80;;
60292;SDS011;52402;52.670;6.750;2023-03-23T16:50:26;7.90;;;3.30;;
60292;SDS011;52402;52.670;6.750;2023-03-23T16:52:53;8.18;;;3.15;;
60292;SDS011;52402;52.670;6.750;2023-03-23T16:55:19;8.10;;;3.78;;
60292;SDS011;52402;52.670;6.750;2023-03-23T16:57:45;8.98;;;3.15;;
60292;SDS011;52402;52.670;6.750;2023-03-23T17:00:15;9.07;;;3.30;;